Time;durP1;ratioP1;P1;durP2;ratioP2;P2;SDS_P1;SDS_P2;PMS_P1;PMS_P2;Temp;Humidity;BMP_temperature;BMP_pressure;BME280_temperature;BME280_humidity;BME280_pressure;Samples;Min_cycle;Max_cycle;Signal;HPM_P1;HPM_P2
2022/10/09 00:00:04;;;;;;;2.57;1.57;;;13.20;44.80;;;;;;5014559;28;20173;-71
2022/10/09 00:02:29;;;;;;;5.13;1.83;;;13.10;44.70;;;;;;5014175;28;20181;-69
2022/10/09 00:04:55;;;;;;;1.97;1.60;;;13.10;44.60;;;;;;5013878;28;20471;-69
2022/10/09 00:07:20;;;;;;;1.40;1.27;;;13.20;44.10;;;;;;5014667;28;20632;-70
2022/10/09 00:09:46;;;;;;;1.60;1.30;;;13.10;43.80;;;;;;5014502;28;20235;-69
2022/10/09 00:12:11;;;;;;;1.80;1.70;;;13.10;44.30;;;;;;5013835;28;20216;-69
2022/10/09 00:14:37;;;;;;;1.80;1.40;;;13.00;45.20;;;;;;5014172;28;20193;-69
2022/10/09 00:17:03;;;;;;;1.40;1.20;;;13.00;44.80;;;;;;5014889;28;20169;-70
2022/10/09 00:19:28;;;;;;;2.07;1.53;;;13.00;44.00;;;;;;5015060;28;20208;-69
2022/10/09 00:21:54;;;;;;;1.30;1.10;;;13.00;44.20;;;;;;5013287;28;20232;-69
2022/10/09 00:24:19;;;;;;;1.30;1.20;;;13.20;43.00;;;;;;5014073;28;20180;-69
2022/10/09 00:26:46;;;;;;;1.50;1.20;;;13.00;43.70;;;;;;5012812;28;20551;-70
2022/10/09 00:29:12;;;;;;;1.40;1.20;;;13.10;43.60;;;;;;5014479;28;20173;-70
2022/10/09 00:31:38;;;;;;;1.30;1.20;;;12.90;44.00;;;;;;5013766;28;20668;-69
2022/10/09 00:34:03;;;;;;;1.47;1.27;;;12.80;43.90;;;;;;5013631;28;20196;-69
2022/10/09 00:36:29;;;;;;;1.40;1.27;;;12.80;44.50;;;;;;5014010;28;20239;-69
2022/10/09 00:38:56;;;;;;;1.40;1.20;;;13.20;44.70;;;;;;5014071;28;20170;-70
2022/10/09 00:41:30;;;;;;;1.40;1.20;;;12.70;44.10;;;;;;5012433;28;20268;-70
2022/10/09 00:44:02;;;;;;;1.40;1.30;;;12.70;44.30;;;;;;5013614;28;20420;-69
2022/10/09 00:46:33;;;;;;;1.50;1.30;;;12.80;44.20;;;;;;5013586;28;20276;-69
2022/10/09 00:49:22;;;;;;;1.60;1.50;;;12.60;44.00;;;;;;5013886;28;20185;-69
2022/10/09 00:51:50;;;;;;;2.13;1.58;;;12.70;43.70;;;;;;5013361;28;20523;-69
2022/10/09 00:54:19;;;;;;;1.40;1.30;;;12.60;43.60;;;;;;5012317;28;20207;-69
2022/10/09 00:56:46;;;;;;;1.40;1.30;;;12.50;43.80;;;;;;5012881;28;20629;-69
2022/10/09 00:59:12;;;;;;;1.93;1.30;;;12.60;43.70;;;;;;5014037;28;20209;-70
2022/10/09 01:01:40;;;;;;;2.63;1.85;;;12.50;44.20;;;;;;5013138;28;20408;-70
2022/10/09 01:04:05;;;;;;;1.50;1.20;;;12.50;43.60;;;;;;5013255;28;20195;-69
2022/10/09 01:06:45;;;;;;;2.23;1.50;;;12.80;44.50;;;;;;5013310;28;20220;-71
2022/10/09 01:09:33;;;;;;;1.30;1.20;;;12.50;43.50;;;;;;5013272;28;20227;-69
2022/10/09 01:12:11;;;;;;;1.35;1.20;;;12.40;43.50;;;;;;5013185;28;20240;-69
2022/10/09 01:15:09;;;;;;;1.40;1.25;;;12.50;43.60;;;;;;5013182;28;20196;-69
2022/10/09 01:17:49;;;;;;;1.92;1.52;;;12.40;44.20;;;;;;5009813;28;20217;-70
2022/10/09 01:20:30;;;;;;;1.30;1.10;;;12.40;43.30;;;;;;5013389;28;20183;-69
2022/10/09 01:23:17;;;;;;;1.40;1.40;;;12.30;43.70;;;;;;5012664;28;20169;-69
2022/10/09 01:26:02;;;;;;;2.35;1.25;;;12.20;44.10;;;;;;5012815;28;20205;-70
2022/10/09 01:28:29;;;;;;;1.30;1.10;;;12.10;44.50;;;;;;5013151;28;20864;-69
2022/10/09 01:31:02;;;;;;;1.30;1.10;;;12.20;44.50;;;;;;5012502;28;20552;-69
2022/10/09 01:33:30;;;;;;;1.30;1.20;;;12.20;44.50;;;;;;5012792;28;20199;-69
2022/10/09 01:35:58;;;;;;;1.30;1.10;;;12.30;43.60;;;;;;5013100;28;20562;-69
2022/10/09 01:38:24;;;;;;;1.70;1.65;;;12.40;44.10;;;;;;5013264;28;20188;-69
2022/10/09 01:40:52;;;;;;;1.85;1.27;;;12.00;43.90;;;;;;5012512;28;20177;-69
2022/10/09 01:43:18;;;;;;;1.30;1.10;;;12.20;44.40;;;;;;5012334;28;20212;-69
2022/10/09 01:45:46;;;;;;;1.43;1.30;;;12.10;43.70;;;;;;5012482;28;20214;-69
2022/10/09 01:48:21;;;;;;;1.85;1.40;;;12.10;44.20;;;;;;5012669;28;20971;-69
2022/10/09 01:50:53;;;;;;;1.30;1.10;;;12.00;44.20;;;;;;5012268;28;20168;-71
2022/10/09 01:53:19;;;;;;;1.30;1.10;;;12.10;43.90;;;;;;5012333;28;20244;-69
2022/10/09 01:55:53;;;;;;;1.40;1.30;;;12.00;44.00;;;;;;5010115;28;20698;-69
2022/10/09 01:58:24;;;;;;;1.30;1.10;;;12.00;44.80;;;;;;5012097;28;20570;-69
2022/10/09 02:01:15;;;;;;;1.70;1.50;;;11.90;44.40;;;;;;5012054;28;20547;-69
2022/10/09 02:03:45;;;;;;;2.20;1.33;;;11.80;44.80;;;;;;5012387;28;20168;-69
2022/10/09 02:06:12;;;;;;;5.35;1.77;;;11.80;45.10;;;;;;5011901;28;20218;-69
2022/10/09 02:08:40;;;;;;;3.15;1.52;;;11.90;44.50;;;;;;5011797;28;20654;-69
2022/10/09 02:11:06;;;;;;;1.40;1.30;;;12.00;44.90;;;;;;5012347;28;20201;-70
2022/10/09 02:13:34;;;;;;;1.73;1.35;;;11.80;45.10;;;;;;5009900;28;20240;-70
2022/10/09 02:16:08;;;;;;;3.38;1.95;;;11.80;44.70;;;;;;5011263;28;20254;-69
2022/10/09 02:18:44;;;;;;;1.40;1.25;;;11.70;45.50;;;;;;4992620;28;20177;-70
2022/10/09 02:21:35;;;;;;;3.05;2.38;;;11.80;45.10;;;;;;4992053;28;20182;-69
2022/10/09 02:24:03;;;;;;;1.77;1.75;;;11.70;45.20;;;;;;4991942;28;20195;-69
2022/10/09 02:26:29;;;;;;;1.75;1.35;;;11.60;46.10;;;;;;4992276;28;20225;-69
2022/10/09 02:28:56;;;;;;;1.30;1.10;;;11.60;46.10;;;;;;4992289;28;20196;-69
2022/10/09 02:31:26;;;;;;;2.15;1.88;;;11.80;45.20;;;;;;4992113;28;20608;-70
2022/10/09 02:33:56;;;;;;;3.70;2.00;;;12.00;45.60;;;;;;4991797;28;20612;-69
2022/10/09 02:36:22;;;;;;;1.80;1.30;;;11.80;44.60;;;;;;4992205;28;20194;-69
2022/10/09 02:38:48;;;;;;;2.25;1.63;;;11.90;45.10;;;;;;4992124;28;20227;-69
2022/10/09 02:41:13;;;;;;;2.20;1.67;;;11.90;45.60;;;;;;4991969;28;20205;-69
2022/10/09 02:43:39;;;;;;;1.77;1.50;;;11.90;45.30;;;;;;4991778;28;20236;-69
2022/10/09 02:46:05;;;;;;;1.50;1.40;;;12.00;46.40;;;;;;4991799;28;20695;-69
2022/10/09 02:48:30;;;;;;;1.70;1.60;;;11.90;46.60;;;;;;4992152;28;20203;-69
2022/10/09 02:50:56;;;;;;;1.40;1.30;;;11.80;46.90;;;;;;4992002;28;20234;-69
2022/10/09 02:53:21;;;;;;;1.30;1.10;;;11.80;47.50;;;;;;4990637;28;20179;-69
2022/10/09 02:55:47;;;;;;;1.47;1.27;;;11.80;46.90;;;;;;4991729;28;20196;-69
2022/10/09 02:58:12;;;;;;;1.93;1.50;;;11.80;46.10;;;;;;4991995;28;20657;-70
2022/10/09 03:00:38;;;;;;;1.90;1.40;;;11.80;46.00;;;;;;4991976;28;20174;-69
2022/10/09 03:03:04;;;;;;;2.53;1.37;;;11.70;45.80;;;;;;4991342;28;20211;-69
2022/10/09 03:05:29;;;;;;;1.30;1.03;;;11.90;45.80;;;;;;4991409;28;20593;-69
2022/10/09 03:07:55;;;;;;;1.57;1.33;;;11.80;45.80;;;;;;4991457;28;20176;-69
2022/10/09 03:10:21;;;;;;;3.40;1.63;;;11.70;46.00;;;;;;4991917;28;20257;-69
2022/10/09 03:12:47;;;;;;;2.87;1.93;;;11.70;46.50;;;;;;4991306;28;20180;-70
2022/10/09 03:15:13;;;;;;;1.50;1.30;;;11.60;46.70;;;;;;4991738;28;20576;-70
2022/10/09 03:17:39;;;;;;;1.50;1.30;;;11.70;46.70;;;;;;4991757;28;20185;-70
2022/10/09 03:20:05;;;;;;;1.83;1.20;;;11.70;46.70;;;;;;4994115;28;20409;-70
2022/10/09 03:22:31;;;;;;;1.30;1.10;;;11.80;46.50;;;;;;4995252;28;20915;-69
2022/10/09 03:24:57;;;;;;;1.30;1.10;;;11.70;46.90;;;;;;4995410;28;20288;-70
2022/10/09 03:27:22;;;;;;;1.50;1.20;;;11.60;46.30;;;;;;4995788;28;20182;-70
2022/10/09 03:29:48;;;;;;;2.17;1.43;;;11.70;46.70;;;;;;4995660;28;20202;-70
2022/10/09 03:32:13;;;;;;;3.53;1.50;;;11.50;47.00;;;;;;4995044;28;20173;-69
2022/10/09 03:34:39;;;;;;;1.30;1.10;;;11.40;47.80;;;;;;4993977;28;20694;-70
2022/10/09 03:37:05;;;;;;;1.30;1.10;;;11.60;47.60;;;;;;4995271;28;20192;-70
2022/10/09 03:39:31;;;;;;;2.40;1.83;;;11.70;47.70;;;;;;4995534;28;20185;-70
2022/10/09 03:41:56;;;;;;;1.50;1.40;;;11.80;47.00;;;;;;4995091;28;20232;-69
2022/10/09 03:44:22;;;;;;;1.60;1.50;;;11.70;47.60;;;;;;4994979;28;20238;-69
2022/10/09 03:46:48;;;;;;;1.47;1.27;;;11.80;46.90;;;;;;4995224;28;20181;-69
2022/10/09 03:49:14;;;;;;;1.70;1.43;;;11.90;46.80;;;;;;4995324;28;20226;-69
2022/10/09 03:51:40;;;;;;;1.50;1.40;;;11.90;47.30;;;;;;4994897;28;20170;-69
2022/10/09 03:54:06;;;;;;;1.70;1.50;;;11.80;47.50;;;;;;4993615;28;20558;-71
2022/10/09 03:56:31;;;;;;;1.60;1.40;;;11.90;47.10;;;;;;4995293;28;20228;-69
2022/10/09 03:58:57;;;;;;;1.40;1.20;;;11.90;46.70;;;;;;4995104;28;20638;-69
2022/10/09 04:01:22;;;;;;;2.20;1.60;;;12.00;46.50;;;;;;4994900;28;20231;-69
2022/10/09 04:03:48;;;;;;;1.63;1.30;;;11.90;46.90;;;;;;4994619;28;20177;-69
2022/10/09 04:06:14;;;;;;;1.30;1.20;;;11.80;47.30;;;;;;4994495;28;20210;-69
2022/10/09 04:08:39;;;;;;;1.80;1.57;;;11.70;47.40;;;;;;4994896;28;20170;-69
2022/10/09 04:11:05;;;;;;;1.30;1.20;;;11.80;48.00;;;;;;4994640;28;20170;-69
2022/10/09 04:13:30;;;;;;;2.20;1.30;;;11.70;47.80;;;;;;4994527;28;20175;-69
2022/10/09 04:15:56;;;;;;;2.10;1.33;;;11.70;47.60;;;;;;4994719;28;20580;-69
2022/10/09 04:18:22;;;;;;;1.30;1.20;;;11.50;48.90;;;;;;4994927;28;20178;-69
2022/10/09 04:20:53;;;;;;;1.77;1.40;;;11.70;48.20;;;;;;4994175;28;20427;-69
2022/10/09 04:23:20;;;;;;;1.48;1.27;;;11.70;48.00;;;;;;4994726;28;20174;-69
2022/10/09 04:25:46;;;;;;;1.50;1.30;;;11.60;49.10;;;;;;4994689;28;20236;-69
2022/10/09 04:28:11;;;;;;;3.10;1.83;;;11.70;49.20;;;;;;4994672;28;20657;-69
2022/10/09 04:30:37;;;;;;;2.37;1.83;;;11.70;49.20;;;;;;4993675;28;20178;-69
2022/10/09 04:33:03;;;;;;;1.40;1.10;;;11.70;48.60;;;;;;4994118;28;20174;-69
2022/10/09 04:35:28;;;;;;;1.40;1.10;;;11.60;50.10;;;;;;4993987;28;20207;-72
2022/10/09 04:37:54;;;;;;;2.17;1.53;;;11.60;49.30;;;;;;4994554;28;20178;-70
2022/10/09 04:40:20;;;;;;;1.30;1.10;;;11.80;47.80;;;;;;4994407;28;20203;-70
2022/10/09 04:42:45;;;;;;;1.30;1.17;;;11.70;47.20;;;;;;4993997;28;20271;-69
2022/10/09 04:45:11;;;;;;;1.40;1.20;;;11.70;48.40;;;;;;4994511;28;20204;-71
2022/10/09 04:47:37;;;;;;;1.60;1.53;;;11.80;48.10;;;;;;4995053;28;20702;-70
2022/10/09 04:50:03;;;;;;;1.33;1.17;;;11.70;48.70;;;;;;4994087;28;20175;-70
2022/10/09 04:52:29;;;;;;;2.35;1.63;;;11.60;48.30;;;;;;4993836;28;20416;-70
2022/10/09 04:54:54;;;;;;;1.60;1.20;;;11.70;47.10;;;;;;4993830;28;20198;-70
2022/10/09 04:57:20;;;;;;;1.30;1.10;;;11.70;47.00;;;;;;4994030;28;20319;-70
2022/10/09 04:59:45;;;;;;;1.30;1.10;;;11.70;46.60;;;;;;4994060;28;20294;-70
2022/10/09 05:02:11;;;;;;;1.30;1.20;;;11.70;46.60;;;;;;4993676;28;20460;-70
2022/10/09 05:04:37;;;;;;;1.50;1.30;;;11.60;46.90;;;;;;4993574;28;20211;-70
2022/10/09 05:07:02;;;;;;;1.30;1.10;;;11.70;46.30;;;;;;4993955;28;20647;-70
2022/10/09 05:09:28;;;;;;;1.67;1.40;;;11.40;46.40;;;;;;4994022;28;20187;-70
2022/10/09 05:11:54;;;;;;;1.50;1.37;;;11.30;47.80;;;;;;4993192;28;20259;-70
2022/10/09 05:14:19;;;;;;;1.83;1.50;;;10.90;49.40;;;;;;4993756;28;20675;-70
2022/10/09 05:16:45;;;;;;;1.40;1.17;;;11.00;49.50;;;;;;4993709;28;20181;-70
2022/10/09 05:19:10;;;;;;;1.30;1.10;;;11.10;49.60;;;;;;4993758;28;20167;-69
2022/10/09 05:21:36;;;;;;;1.50;1.20;;;11.20;48.50;;;;;;4993271;28;20202;-69
2022/10/09 05:24:02;;;;;;;2.23;1.53;;;11.10;48.60;;;;;;4993321;28;20555;-70
2022/10/09 05:26:27;;;;;;;1.57;1.40;;;10.60;49.50;;;;;;4993470;28;20205;-70
2022/10/09 05:28:53;;;;;;;1.70;1.50;;;10.70;49.90;;;;;;4992311;28;20791;-70
2022/10/09 05:31:22;;;;;;;1.40;1.20;;;10.70;50.50;;;;;;4993067;28;20183;-70
2022/10/09 05:33:48;;;;;;;1.83;1.40;;;10.90;49.40;;;;;;4991646;28;20428;-70
2022/10/09 05:36:15;;;;;;;1.70;1.60;;;11.00;48.80;;;;;;4993324;28;20200;-70
2022/10/09 05:38:40;;;;;;;1.60;1.48;;;11.20;47.40;;;;;;4993379;28;20616;-69
2022/10/09 05:41:09;;;;;;;1.50;1.30;;;11.10;47.50;;;;;;4991337;28;20274;-70
2022/10/09 05:43:39;;;;;;;1.85;1.63;;;11.10;48.40;;;;;;4993115;28;20179;-70
2022/10/09 05:46:14;;;;;;;2.28;1.50;;;10.40;50.90;;;;;;4992976;28;20204;-69
2022/10/09 05:48:41;;;;;;;1.85;1.42;;;10.30;51.80;;;;;;4993485;28;20201;-69
2022/10/09 05:51:12;;;;;;;1.50;1.50;;;10.40;52.70;;;;;;4993064;28;20643;-69
2022/10/09 05:53:39;;;;;;;1.30;1.20;;;10.50;51.60;;;;;;4992605;28;20258;-70
2022/10/09 05:56:15;;;;;;;1.92;1.40;;;10.60;51.30;;;;;;4992943;28;20289;-70
2022/10/09 05:58:42;;;;;;;1.40;1.10;;;10.40;53.10;;;;;;4992871;28;20183;-70
2022/10/09 06:01:08;;;;;;;2.42;1.33;;;10.80;51.30;;;;;;4992777;28;20203;-70
2022/10/09 06:03:35;;;;;;;1.33;1.23;;;10.70;50.60;;;;;;4992798;28;20171;-69
2022/10/09 06:06:03;;;;;;;1.42;1.25;;;10.70;51.70;;;;;;4992285;28;20843;-70
2022/10/09 06:08:32;;;;;;;3.05;2.13;;;11.00;49.90;;;;;;4992820;28;20179;-70
2022/10/09 06:11:06;;;;;;;1.95;1.67;;;11.20;48.80;;;;;;4992743;28;20170;-70
2022/10/09 06:13:32;;;;;;;1.70;1.40;;;11.00;49.50;;;;;;4992468;28;20258;-70
2022/10/09 06:15:57;;;;;;;2.50;1.30;;;11.20;49.70;;;;;;4992486;28;20294;-69
2022/10/09 06:18:23;;;;;;;1.40;1.20;;;11.40;48.60;;;;;;4992690;28;20413;-70
2022/10/09 06:21:00;;;;;;;1.60;1.57;;;11.40;47.50;;;;;;4991935;28;20180;-70
2022/10/09 06:23:27;;;;;;;3.70;2.22;;;11.30;47.70;;;;;;4991121;28;20274;-69
2022/10/09 06:25:58;;;;;;;3.05;1.77;;;11.30;48.30;;;;;;4992148;28;20258;-70
2022/10/09 06:28:23;;;;;;;1.88;1.50;;;11.50;46.90;;;;;;4992385;28;20171;-70
2022/10/09 06:30:49;;;;;;;1.73;1.47;;;11.40;47.20;;;;;;4990535;28;20553;-70
2022/10/09 06:33:15;;;;;;;2.63;1.90;;;11.40;47.50;;;;;;4992485;28;20640;-70
2022/10/09 06:35:40;;;;;;;3.07;2.00;;;11.30;47.70;;;;;;4992211;28;20272;-70
2022/10/09 06:38:06;;;;;;;1.40;1.20;;;11.40;47.80;;;;;;4992511;28;20522;-69
2022/10/09 06:40:35;;;;;;;1.33;1.23;;;11.60;47.00;;;;;;4992263;28;20177;-70
2022/10/09 06:43:02;;;;;;;1.30;1.17;;;11.60;46.20;;;;;;4991817;28;20232;-70
2022/10/09 06:45:28;;;;;;;1.70;1.30;;;11.30;47.60;;;;;;4991931;28;20222;-70
2022/10/09 06:47:54;;;;;;;1.80;1.33;;;11.40;48.70;;;;;;4992089;28;20180;-70
2022/10/09 06:50:20;;;;;;;1.50;1.40;;;11.30;48.70;;;;;;4992094;28;20199;-70
2022/10/09 06:52:45;;;;;;;1.87;1.50;;;11.30;49.80;;;;;;4991547;28;20171;-70
2022/10/09 06:55:11;;;;;;;13.20;1.70;;;11.50;49.10;;;;;;4991126;28;20263;-70
2022/10/09 06:57:36;;;;;;;2.23;1.40;;;11.20;49.00;;;;;;4992014;28;20191;-69
2022/10/09 07:00:03;;;;;;;1.77;1.57;;;11.50;48.40;;;;;;4991926;28;20182;-69
2022/10/09 07:02:31;;;;;;;1.88;1.60;;;11.50;47.40;;;;;;4991447;28;20179;-70
2022/10/09 07:04:57;;;;;;;1.40;1.30;;;11.40;48.00;;;;;;4991299;28;20731;-70
2022/10/09 07:07:23;;;;;;;2.15;1.70;;;11.90;48.90;;;;;;4990531;28;20187;-69
2022/10/09 07:09:48;;;;;;;1.80;1.40;;;11.50;48.80;;;;;;4991571;28;20731;-71
2022/10/09 07:12:14;;;;;;;1.30;1.20;;;11.50;49.30;;;;;;4991317;28;20219;-70
2022/10/09 07:14:39;;;;;;;3.27;1.63;;;11.60;48.60;;;;;;4991511;28;20196;-71
2022/10/09 07:17:05;;;;;;;2.23;1.80;;;12.00;48.70;;;;;;4991749;28;20268;-69
2022/10/09 07:19:30;;;;;;;1.50;1.20;;;11.80;47.80;;;;;;4991859;28;20186;-70
2022/10/09 07:21:56;;;;;;;1.30;1.20;;;11.20;49.10;;;;;;4990970;28;20659;-71
2022/10/09 07:24:23;;;;;;;1.83;1.50;;;11.10;50.30;;;;;;4991635;28;20188;-71
2022/10/09 07:26:49;;;;;;;1.67;1.42;;;11.20;49.90;;;;;;4991883;28;20181;-70
2022/10/09 07:29:17;;;;;;;1.52;1.35;;;11.20;50.30;;;;;;4991728;28;20177;-70
2022/10/09 07:31:43;;;;;;;1.77;1.58;;;11.10;51.20;;;;;;4990974;28;20169;-70
2022/10/09 07:34:09;;;;;;;1.88;1.75;;;11.20;50.40;;;;;;4991431;28;20187;-70
2022/10/09 07:36:34;;;;;;;2.55;2.00;;;11.10;51.10;;;;;;4990670;28;20202;-70
2022/10/09 07:39:00;;;;;;;1.43;1.37;;;11.30;51.70;;;;;;4991772;28;20238;-70
2022/10/09 07:41:27;;;;;;;1.93;1.60;;;11.40;49.90;;;;;;4991259;28;20180;-69
2022/10/09 07:43:53;;;;;;;2.55;1.70;;;11.50;50.00;;;;;;4991006;28;20409;-70
2022/10/09 07:46:21;;;;;;;1.93;1.40;;;11.60;51.40;;;;;;4991440;28;20209;-70
2022/10/09 07:48:47;;;;;;;1.50;1.40;;;11.50;49.60;;;;;;4991567;28;20409;-70
2022/10/09 07:51:24;;;;;;;2.37;1.60;;;11.20;52.30;;;;;;4990793;28;20661;-70
2022/10/09 07:53:51;;;;;;;1.80;1.73;;;11.10;54.90;;;;;;4991156;28;20491;-69
2022/10/09 07:56:19;;;;;;;1.30;1.20;;;11.70;51.80;;;;;;4991490;28;20436;-70
2022/10/09 07:58:52;;;;;;;1.52;1.35;;;11.80;50.20;;;;;;4991412;28;20174;-70
2022/10/09 08:01:18;;;;;;;1.60;1.35;;;11.60;50.10;;;;;;4991260;28;20298;-70
2022/10/09 08:03:45;;;;;;;1.73;1.35;;;11.80;54.50;;;;;;4989930;28;20189;-71
2022/10/09 08:06:11;;;;;;;1.50;1.40;;;11.70;52.20;;;;;;4992249;28;20218;-70
2022/10/09 08:08:36;;;;;;;1.30;1.27;;;12.00;52.50;;;;;;4995002;28;20177;-69
2022/10/09 08:11:10;;;;;;;2.17;1.53;;;12.30;50.70;;;;;;4994672;28;20417;-70
2022/10/09 08:13:36;;;;;;;1.30;1.17;;;12.50;49.30;;;;;;4994460;28;20184;-71
2022/10/09 08:16:02;;;;;;;2.13;1.70;;;12.90;47.50;;;;;;4994772;28;20527;-69
2022/10/09 08:18:28;;;;;;;2.73;1.67;;;12.40;49.80;;;;;;4994789;28;20725;-71
2022/10/09 08:21:16;;;;;;;1.47;1.30;;;12.50;50.90;;;;;;4994567;28;20452;-71
2022/10/09 08:23:43;;;;;;;1.83;1.40;;;12.50;49.60;;;;;;4994441;28;20201;-70
2022/10/09 08:26:17;;;;;;;2.73;1.50;;;12.80;50.20;;;;;;4994495;28;20452;-70
2022/10/09 08:28:43;;;;;;;5.93;2.33;;;12.80;50.50;;;;;;4994405;28;20410;-71
2022/10/09 08:31:12;;;;;;;1.40;1.40;;;13.00;49.10;;;;;;4994421;28;20429;-71
2022/10/09 08:33:38;;;;;;;2.37;1.57;;;13.30;47.30;;;;;;4994276;28;20451;-70
2022/10/09 08:36:08;;;;;;;1.97;1.60;;;12.90;49.80;;;;;;4994249;28;20520;-70
2022/10/09 08:38:35;;;;;;;2.23;2.03;;;12.90;50.10;;;;;;4994441;28;20228;-71
2022/10/09 08:41:00;;;;;;;1.37;1.27;;;13.10;48.80;;;;;;4994039;28;20482;-71
2022/10/09 08:43:36;;;;;;;1.40;1.20;;;13.20;49.90;;;;;;4992682;28;20463;-70
2022/10/09 08:46:34;;;;;;;2.17;1.30;;;13.60;49.10;;;;;;4994173;28;20205;-71
2022/10/09 08:49:03;;;;;;;2.37;1.40;;;13.90;46.60;;;;;;4958793;28;20504;-71
2022/10/09 08:51:34;;;;;;;1.43;1.20;;;13.90;47.30;;;;;;4993956;28;20409;-71
2022/10/09 08:54:31;;;;;;;1.60;1.50;;;14.70;45.20;;;;;;4993839;28;20412;-71
2022/10/09 08:57:01;;;;;;;1.50;1.23;;;14.60;43.20;;;;;;4991202;28;20499;-71
2022/10/09 08:59:27;;;;;;;2.70;1.73;;;14.30;45.30;;;;;;4994058;28;20440;-71
2022/10/09 09:02:06;;;;;;;1.77;1.30;;;14.60;44.10;;;;;;4993725;28;20413;-71
2022/10/09 09:04:46;;;;;;;2.70;1.73;;;14.70;44.10;;;;;;4993643;28;20616;-71
2022/10/09 09:07:17;;;;;;;3.30;1.80;;;14.90;45.30;;;;;;4994120;28;20760;-70
2022/10/09 09:09:53;;;;;;;2.53;1.43;;;15.40;42.60;;;;;;4993869;28;20394;-70
2022/10/09 09:12:48;;;;;;;1.60;1.60;;;15.10;41.60;;;;;;4993380;28;20420;-72
2022/10/09 09:15:17;;;;;;;4.30;1.80;;;14.70;43.70;;;;;;4993615;28;20436;-71
2022/10/09 09:17:53;;;;;;;2.17;1.60;;;14.80;44.60;;;;;;4993651;28;20409;-71
2022/10/09 09:20:38;;;;;;;2.70;1.87;;;14.70;45.60;;;;;;4993944;28;20435;-70
2022/10/09 09:23:12;;;;;;;1.87;1.77;;;14.70;44.80;;;;;;4993190;28;20459;-71
2022/10/09 09:25:40;;;;;;;1.60;1.43;;;15.20;44.80;;;;;;4993282;28;20542;-71
2022/10/09 09:28:33;;;;;;;2.03;1.63;;;15.50;41.30;;;;;;4993571;28;20423;-70
2022/10/09 09:31:13;;;;;;;1.87;1.70;;;15.40;42.00;;;;;;4993620;28;20437;-71
2022/10/09 09:33:41;;;;;;;1.60;1.43;;;15.70;41.20;;;;;;4993190;28;20461;-71
2022/10/09 09:36:15;;;;;;;2.80;2.10;;;16.10;39.70;;;;;;4993454;28;20438;-70
2022/10/09 09:38:41;;;;;;;1.50;1.30;;;16.30;39.20;;;;;;4993209;28;20405;-71
2022/10/09 09:41:07;;;;;;;2.70;1.93;;;16.70;37.50;;;;;;4993515;28;20419;-71
2022/10/09 09:43:34;;;;;;;1.50;1.30;;;17.20;38.20;;;;;;4993045;28;20178;-71
2022/10/09 09:46:00;;;;;;;1.30;1.20;;;17.70;35.80;;;;;;4992967;28;20201;-71
2022/10/09 09:48:38;;;;;;;1.50;1.50;;;18.00;33.60;;;;;;4993061;28;20441;-71
2022/10/09 09:51:11;;;;;;;1.70;1.47;;;18.20;32.70;;;;;;4992849;28;20432;-71
2022/10/09 09:53:42;;;;;;;1.67;1.47;;;18.30;31.70;;;;;;4992919;28;20398;-70
2022/10/09 09:56:08;;;;;;;2.00;1.57;;;18.50;31.20;;;;;;4992938;28;20516;-71
2022/10/09 09:58:38;;;;;;;1.60;1.30;;;18.60;31.80;;;;;;4992784;28;20501;-71
2022/10/09 10:01:05;;;;;;;1.30;1.20;;;18.40;30.70;;;;;;4992706;28;20431;-71
2022/10/09 10:03:33;;;;;;;4.90;1.70;;;18.70;31.20;;;;;;4991744;28;20813;-69
2022/10/09 10:05:59;;;;;;;2.17;1.60;;;18.60;28.90;;;;;;4992610;28;20804;-71
2022/10/09 10:08:31;;;;;;;1.73;1.40;;;18.80;29.30;;;;;;4992919;28;20816;-72
2022/10/09 10:11:02;;;;;;;1.70;1.43;;;19.20;29.80;;;;;;4992271;28;20401;-71
2022/10/09 10:13:37;;;;;;;1.40;1.40;;;19.20;29.40;;;;;;4992513;28;20444;-71
2022/10/09 10:16:04;;;;;;;1.30;1.20;;;19.00;28.70;;;;;;4992551;28;20487;-71
2022/10/09 10:18:36;;;;;;;1.40;1.40;;;18.40;27.80;;;;;;4992793;28;20411;-72
2022/10/09 10:21:07;;;;;;;1.57;1.53;;;18.50;28.50;;;;;;4992124;28;20403;-70
2022/10/09 10:23:59;;;;;;;3.23;1.50;;;18.40;28.70;;;;;;4992117;28;20406;-71
2022/10/09 10:26:49;;;;;;;1.93;1.60;;;18.40;28.70;;;;;;4992016;28;20476;-71
2022/10/09 10:29:19;;;;;;;2.10;1.43;;;18.50;29.90;;;;;;4991846;28;20468;-71
2022/10/09 10:32:06;;;;;;;1.43;1.40;;;18.50;28.40;;;;;;4991843;28;20778;-72
2022/10/09 10:34:55;;;;;;;3.20;1.80;;;18.90;29.00;;;;;;4991944;28;20764;-71
2022/10/09 10:37:30;;;;;;;1.67;1.50;;;18.90;28.30;;;;;;4992438;28;20415;-72
2022/10/09 10:39:58;;;;;;;1.30;1.20;;;19.20;28.10;;;;;;4992397;28;20411;-72
2022/10/09 10:42:48;;;;;;;2.90;1.60;;;19.80;27.60;;;;;;4991699;28;20838;-72
2022/10/09 10:45:42;;;;;;;1.30;1.10;;;20.30;26.20;;;;;;4985555;28;20478;-71
2022/10/09 10:48:28;;;;;;;1.80;1.27;;;20.30;26.10;;;;;;4987347;28;20942;-72
2022/10/09 10:51:19;;;;;;;1.70;1.37;;;20.50;25.70;;;;;;4991741;28;20392;-71
2022/10/09 10:53:44;;;;;;;1.40;1.20;;;20.40;26.80;;;;;;4992143;28;20776;-70
2022/10/09 10:56:23;;;;;;;1.50;1.40;;;20.70;25.70;;;;;;4992050;28;20432;-71
2022/10/09 10:59:28;;;;;;;2.13;1.60;;;20.50;25.90;;;;;;4992054;28;20174;-71
2022/10/09 11:02:08;;;;;;;1.50;1.47;;;20.70;24.60;;;;;;4991401;28;20418;-71
2022/10/09 11:05:15;;;;;;;1.30;1.23;;;21.10;24.30;;;;;;4991393;28;20950;-71
2022/10/09 11:07:43;;;;;;;1.30;1.23;;;20.70;24.50;;;;;;4970080;28;20429;-71
2022/10/09 11:10:40;;;;;;;1.30;1.23;;;20.60;26.40;;;;;;4970115;28;20475;-71
2022/10/09 11:13:39;;;;;;;1.40;1.37;;;20.90;25.00;;;;;;4969487;28;20419;-71
2022/10/09 11:16:20;;;;;;;1.30;1.30;;;21.60;24.50;;;;;;4969884;28;20509;-70
2022/10/09 11:19:02;;;;;;;1.57;1.40;;;21.50;25.00;;;;;;4969706;28;20951;-71
2022/10/09 11:22:06;;;;;;;1.60;1.37;;;21.40;24.60;;;;;;4969638;28;20408;-71
2022/10/09 11:25:04;;;;;;;1.93;1.53;;;21.20;25.40;;;;;;4925328;28;20524;-71
2022/10/09 11:27:44;;;;;;;1.70;1.40;;;21.40;25.00;;;;;;4969857;28;20409;-71
2022/10/09 11:30:13;;;;;;;1.80;1.30;;;21.00;24.60;;;;;;4969752;28;20433;-71
2022/10/09 11:32:47;;;;;;;1.93;1.50;;;20.80;25.70;;;;;;4996501;23;20490;-76
2022/10/09 11:35:45;;;;;;;1.40;1.30;;;20.70;25.20;;;;;;5008670;28;20824;-73
2022/10/09 11:38:36;;;;;;;2.83;1.37;;;20.80;26.50;;;;;;5010646;28;20424;-76
2022/10/09 11:41:03;;;;;;;1.60;1.33;;;21.00;25.30;;;;;;5013436;28;20447;-76
2022/10/09 11:43:44;;;;;;;1.50;1.20;;;20.80;24.90;;;;;;5014927;28;20420;-73
2022/10/09 11:46:30;;;;;;;1.30;1.30;;;20.60;25.40;;;;;;5015042;28;20566;-73
2022/10/09 11:48:56;;;;;;;1.30;1.23;;;20.90;25.90;;;;;;5015046;28;20414;-73
2022/10/09 11:51:41;;;;;;;1.80;1.50;;;21.00;26.50;;;;;;5014742;28;20410;-73
2022/10/09 11:54:14;;;;;;;1.40;1.30;;;20.80;25.50;;;;;;5014783;28;20189;-73
2022/10/09 11:56:54;;;;;;;1.40;1.27;;;21.10;25.30;;;;;;5014962;28;20420;-74
2022/10/09 11:59:24;;;;;;;1.30;1.20;;;21.50;26.40;;;;;;5014844;28;20520;-73
2022/10/09 12:01:50;;;;;;;2.00;1.40;;;21.40;25.10;;;;;;5014119;28;20502;-73
2022/10/09 12:04:33;;;;;;;2.07;1.40;;;21.30;25.80;;;;;;5014475;28;20470;-73
2022/10/09 12:07:01;;;;;;;1.40;1.40;;;21.70;25.60;;;;;;5013531;28;20419;-73
2022/10/09 12:09:37;;;;;;;1.30;1.30;;;21.30;24.80;;;;;;5014621;28;20408;-74
2022/10/09 12:12:15;;;;;;;1.40;1.30;;;21.40;25.50;;;;;;5014206;28;20396;-74
2022/10/09 12:14:42;;;;;;;1.50;1.40;;;21.40;25.90;;;;;;5014784;28;20423;-74
2022/10/09 12:17:20;;;;;;;1.50;1.30;;;21.90;24.90;;;;;;5014643;28;20411;-74
2022/10/09 12:19:46;;;;;;;1.40;1.30;;;21.80;24.80;;;;;;5014461;28;20404;-73
2022/10/09 12:22:17;;;;;;;1.50;1.40;;;21.80;25.10;;;;;;5013732;28;20466;-74
2022/10/09 12:24:49;;;;;;;2.57;1.60;;;22.10;25.30;;;;;;5014113;28;20886;-74
2022/10/09 12:27:32;;;;;;;1.40;1.40;;;22.30;25.30;;;;;;5014416;28;20830;-74
2022/10/09 12:30:19;;;;;;;4.50;1.50;;;22.40;24.30;;;;;;5014350;28;20399;-73
2022/10/09 12:32:48;;;;;;;1.40;1.40;;;22.30;24.50;;;;;;5013258;28;20442;-74
2022/10/09 12:35:40;;;;;;;1.30;1.30;;;22.00;24.70;;;;;;5014293;28;20454;-74
2022/10/09 12:38:24;;;;;;;1.30;1.13;;;21.90;26.10;;;;;;5014124;28;20406;-74
2022/10/09 12:40:51;;;;;;;1.50;1.50;;;22.20;25.00;;;;;;5013566;28;20400;-74
2022/10/09 12:43:21;;;;;;;1.40;1.37;;;21.80;24.80;;;;;;5013811;28;20546;-73
2022/10/09 12:45:49;;;;;;;1.43;1.37;;;21.90;25.60;;;;;;5012310;28;20472;-73
2022/10/09 12:48:21;;;;;;;1.30;1.30;;;21.60;24.90;;;;;;5014027;28;20418;-73
2022/10/09 12:50:47;;;;;;;1.83;1.50;;;21.50;26.70;;;;;;5013500;28;20522;-73
2022/10/09 12:53:15;;;;;;;1.80;1.67;;;21.50;25.50;;;;;;5013201;28;20942;-74
2022/10/09 12:55:47;;;;;;;1.30;1.30;;;21.60;26.30;;;;;;5014898;28;20486;-73
2022/10/09 12:58:23;;;;;;;1.43;1.37;;;21.60;25.40;;;;;;5015079;28;20407;-73
2022/10/09 13:00:52;;;;;;;1.83;1.50;;;21.00;26.70;;;;;;5012581;28;20488;-73
2022/10/09 13:03:33;;;;;;;1.30;1.20;;;21.20;26.80;;;;;;5014349;28;20432;-74
2022/10/09 13:06:05;;;;;;;1.63;1.47;;;21.30;26.50;;;;;;5013956;28;20446;-73